createdAt,value
2019-04-05T00:01:57.248Z,7.01
2019-04-05T00:04:26.639Z,7.06
2019-04-05T00:06:56.054Z,6.94
2019-04-05T00:09:25.441Z,7.14
2019-04-05T00:11:54.855Z,7.02
2019-04-05T00:14:24.222Z,7.11
2019-04-05T00:16:53.711Z,6.95
2019-04-05T00:19:23.114Z,7.05
2019-04-05T00:21:52.488Z,7.02
2019-04-05T00:24:21.868Z,7.11
2019-04-05T00:26:51.226Z,7.09
2019-04-05T00:29:20.657Z,6.91
2019-04-05T00:31:50.040Z,6.71
2019-04-05T00:34:19.420Z,6.54
2019-04-05T00:36:48.812Z,6.58
2019-04-05T00:39:18.192Z,6.56
2019-04-05T00:41:47.591Z,6.45
2019-04-05T00:44:16.965Z,6.37
2019-04-05T00:46:46.373Z,6.64
2019-04-05T00:49:15.937Z,6.76
2019-04-05T00:51:45.539Z,6.76
2019-04-05T00:54:14.907Z,6.91
2019-04-05T00:56:44.275Z,6.79
2019-04-05T00:59:13.680Z,6.87
2019-04-05T01:01:43.039Z,6.87
2019-04-05T01:04:12.437Z,7.10
2019-04-05T01:06:41.814Z,6.95
2019-04-05T01:09:11.294Z,6.88
2019-04-05T01:11:40.980Z,6.87
2019-04-05T01:14:10.725Z,6.95
2019-04-05T01:16:40.098Z,7.03
2019-04-05T01:19:09.803Z,7.19
2019-04-05T01:21:44.744Z,7.13
2019-04-05T01:24:15.531Z,7.16
2019-04-05T01:26:47.140Z,7.10
2019-04-05T01:29:17.022Z,7.14
2019-04-05T01:31:46.520Z,7.06
2019-04-05T01:34:16.095Z,6.95
2019-04-05T01:36:45.497Z,7.08
2019-04-05T01:39:14.892Z,7.03
2019-04-05T01:41:44.349Z,6.91
2019-04-05T01:44:14.054Z,7.15
2019-04-05T01:46:43.621Z,7.23
2019-04-05T01:49:13.039Z,7.18
2019-04-05T01:51:42.511Z,7.19
2019-04-05T01:54:11.919Z,7.33
2019-04-05T01:56:41.293Z,7.25
2019-04-05T01:59:10.676Z,7.29
2019-04-05T02:01:40.070Z,7.30
2019-04-05T02:04:09.437Z,7.20
2019-04-05T02:06:38.852Z,7.38
2019-04-05T02:09:11.699Z,7.46
2019-04-05T02:11:41.288Z,7.20
2019-04-05T02:14:11.156Z,7.21
2019-04-05T02:16:40.658Z,7.25
2019-04-05T02:19:10.466Z,7.13
2019-04-05T02:21:39.934Z,6.92
2019-04-05T02:24:09.394Z,7.05
2019-04-05T02:26:38.879Z,7.14
2019-04-05T02:29:08.594Z,7.06
2019-04-05T02:31:37.975Z,7.17
2019-04-05T02:34:07.360Z,7.10
2019-04-05T02:36:37.026Z,7.09
2019-04-05T02:39:08.378Z,7.20
2019-04-05T02:41:39.269Z,7.15
2019-04-05T02:44:11.447Z,7.19
2019-04-05T02:46:42.308Z,7.11
2019-04-05T02:49:13.301Z,7.11
2019-04-05T02:51:44.197Z,6.97
2019-04-05T02:54:15.175Z,6.88
2019-04-05T02:56:45.221Z,7.18
2019-04-05T02:59:16.195Z,6.92
2019-04-05T03:01:45.791Z,7.00
2019-04-05T03:04:15.465Z,6.99
2019-04-05T03:06:46.048Z,6.87
2019-04-05T03:09:16.066Z,6.99
2019-04-05T03:11:45.440Z,7.23
2019-04-05T03:14:15.958Z,7.17
2019-04-05T03:16:48.238Z,7.11
2019-04-05T03:19:23.932Z,7.08
2019-04-05T03:21:58.439Z,7.17
2019-04-05T03:24:31.938Z,7.27
2019-04-05T03:27:09.990Z,7.52
2019-04-05T03:29:39.709Z,7.45
2019-04-05T03:32:09.554Z,7.13
2019-04-05T03:34:40.073Z,7.23
2019-04-05T03:37:10.039Z,7.25
2019-04-05T03:39:39.625Z,7.16
2019-04-05T03:42:10.028Z,7.21
2019-04-05T03:44:39.551Z,7.03
2019-04-05T03:47:08.951Z,6.93
2019-04-05T03:49:38.522Z,6.98
2019-04-05T03:52:08.169Z,7.07
2019-04-05T03:54:38.127Z,7.27
2019-04-05T03:57:08.297Z,7.07
2019-04-05T03:59:37.891Z,7.05
2019-04-05T04:02:07.330Z,7.19
2019-04-05T04:04:36.731Z,6.89
2019-04-05T04:07:06.614Z,7.18
2019-04-05T04:09:36.008Z,7.21
2019-04-05T04:12:05.610Z,7.16
2019-04-05T04:14:36.001Z,7.07
2019-04-05T04:17:12.980Z,7.17
2019-04-05T04:19:38.597Z,7.09
2019-04-05T04:22:30.065Z,6.93
2019-04-05T04:25:00.166Z,7.15
2019-04-05T04:27:31.136Z,6.99
2019-04-05T04:30:00.839Z,6.97
2019-04-05T04:32:30.829Z,7.09
2019-04-05T04:35:00.286Z,6.97
2019-04-05T04:37:29.886Z,6.92
2019-04-05T04:39:59.574Z,6.99
2019-04-05T04:42:29.372Z,6.72
2019-04-05T04:45:11.364Z,6.99
2019-04-05T04:47:31.484Z,6.99
2019-04-05T04:50:01.075Z,7.05
2019-04-05T04:52:32.054Z,7.13
2019-04-05T04:55:01.663Z,7.03
2019-04-05T04:57:31.329Z,7.09
2019-04-05T05:00:01.038Z,7.03
2019-04-05T05:02:31.004Z,7.11
2019-04-05T05:05:00.492Z,7.15
2019-04-05T05:07:30.120Z,7.21
2019-04-05T05:10:03.006Z,7.30
2019-04-05T05:12:31.278Z,6.94
2019-04-05T05:15:00.869Z,7.19
2019-04-05T05:17:38.404Z,7.27
2019-04-05T05:20:01.471Z,7.21
2019-04-05T05:22:31.518Z,7.27
2019-04-05T05:25:01.710Z,7.13
2019-04-05T05:27:31.417Z,7.14
2019-04-05T05:30:00.832Z,6.95
2019-04-05T05:32:30.383Z,7.04
2019-04-05T05:35:02.225Z,7.00
2019-04-05T05:37:32.952Z,7.00
2019-04-05T05:40:02.628Z,7.02
2019-04-05T05:42:32.099Z,7.06
2019-04-05T05:45:01.529Z,7.08
2019-04-05T05:47:31.101Z,7.18
2019-04-05T05:50:00.450Z,7.25
2019-04-05T05:52:29.945Z,7.37
2019-04-05T05:54:59.392Z,7.28
2019-04-05T05:57:28.835Z,7.23
2019-04-05T05:59:58.487Z,7.20
2019-04-05T06:02:29.323Z,7.24
2019-04-05T06:04:58.699Z,7.27
2019-04-05T06:07:28.270Z,7.27
2019-04-05T06:09:57.722Z,6.95
2019-04-05T06:12:27.174Z,6.97
2019-04-05T06:14:56.653Z,6.70
2019-04-05T06:17:26.112Z,6.55
2019-04-05T06:19:55.697Z,6.87
2019-04-05T06:22:25.164Z,6.81
2019-04-05T06:24:54.565Z,7.04
2019-04-05T06:27:23.921Z,7.16
2019-04-05T06:29:53.323Z,7.38
2019-04-05T06:32:22.708Z,7.44
2019-04-05T06:34:52.102Z,7.32
2019-04-05T06:37:21.557Z,7.53
2019-04-05T06:39:50.944Z,7.39
2019-04-05T06:42:20.331Z,7.49
2019-04-05T06:44:49.813Z,7.80
2019-04-05T06:47:19.232Z,7.70
2019-04-05T06:49:48.623Z,7.52
2019-04-05T06:52:18.029Z,7.17
2019-04-05T06:54:47.716Z,7.01
2019-04-05T06:57:17.355Z,7.33
2019-04-05T06:59:46.886Z,7.42
2019-04-05T07:02:18.426Z,7.49
2019-04-05T07:04:47.400Z,7.60
2019-04-05T07:07:17.951Z,7.56
2019-04-05T07:09:47.570Z,7.60
2019-04-05T07:12:16.997Z,7.28
2019-04-05T07:14:46.563Z,7.37
2019-04-05T07:17:15.917Z,7.64
2019-04-05T07:19:45.428Z,7.55
2019-04-05T07:22:16.365Z,7.76
2019-04-05T07:24:45.851Z,7.73
2019-04-05T07:27:15.363Z,7.98
2019-04-05T07:29:44.914Z,7.85
2019-04-05T07:32:14.491Z,7.55
2019-04-05T07:34:43.928Z,7.55
2019-04-05T07:37:13.890Z,7.76
2019-04-05T07:39:43.328Z,7.93
2019-04-05T07:42:12.717Z,8.14
2019-04-05T07:44:42.083Z,8.14
2019-04-05T07:47:11.489Z,8.22
2019-04-05T07:49:40.978Z,8.40
2019-04-05T07:52:12.905Z,8.26
2019-04-05T07:54:41.493Z,8.28
2019-04-05T07:57:10.861Z,8.24
2019-04-05T07:59:40.256Z,8.31
2019-04-05T08:02:09.636Z,8.20
2019-04-05T08:04:39.040Z,8.23
2019-04-05T08:07:08.707Z,8.20
2019-04-05T08:09:39.686Z,8.49
2019-04-05T08:12:09.230Z,8.49
2019-04-05T08:14:40.001Z,8.45
2019-04-05T08:17:09.481Z,8.37
2019-04-05T08:19:38.888Z,8.42
2019-04-05T08:22:08.287Z,8.43
2019-04-05T08:24:38.730Z,7.85
2019-04-05T08:27:08.157Z,8.30
2019-04-05T08:29:37.605Z,8.30
2019-04-05T08:32:14.316Z,7.67
2019-04-05T08:34:38.659Z,8.06
2019-04-05T08:37:08.657Z,7.97
2019-04-05T08:39:38.040Z,8.26
2019-04-05T08:42:10.586Z,8.30
2019-04-05T08:44:38.673Z,8.40
2019-04-05T08:47:08.119Z,8.40
2019-04-05T08:49:37.560Z,8.67
2019-04-05T08:52:07.006Z,8.40
2019-04-05T08:54:36.850Z,8.40
2019-04-05T08:57:08.235Z,8.51
2019-04-05T08:59:37.629Z,8.73
2019-04-05T09:02:07.017Z,8.73
2019-04-05T09:04:37.408Z,8.61
2019-04-05T09:07:08.999Z,8.77
2019-04-05T09:09:38.364Z,8.79
2019-04-05T09:12:07.784Z,8.86
2019-04-05T09:14:37.766Z,8.88
2019-04-05T09:17:07.511Z,8.91
2019-04-05T09:19:37.853Z,8.98
2019-04-05T09:22:07.711Z,8.98
2019-04-05T09:24:37.899Z,8.92
2019-04-05T09:27:08.161Z,9.02
2019-04-05T09:29:38.244Z,9.02
2019-04-05T09:32:08.353Z,8.97
2019-04-05T09:34:38.285Z,9.18
2019-04-05T09:37:08.296Z,9.16
2019-04-05T09:39:38.425Z,9.16
2019-04-05T09:42:08.182Z,8.98
2019-04-05T09:44:38.187Z,8.84
2019-04-05T09:47:08.373Z,8.84
2019-04-05T09:49:38.220Z,8.86
2019-04-05T09:52:08.307Z,8.89
2019-04-05T09:54:38.461Z,9.07
2019-04-05T09:57:08.718Z,8.76
2019-04-05T09:59:38.908Z,8.76
2019-04-05T10:02:09.126Z,9.00
2019-04-05T10:04:39.270Z,9.02
2019-04-05T10:07:09.577Z,9.02
2019-04-05T10:09:39.532Z,9.09
2019-04-05T10:12:09.614Z,9.21
2019-04-05T10:14:39.810Z,9.17
2019-04-05T10:17:09.882Z,9.36
2019-04-05T10:19:49.654Z,9.36
2019-04-05T10:22:11.825Z,9.45
2019-04-05T10:24:42.063Z,9.42
2019-04-05T10:27:12.192Z,9.27
2019-04-05T10:29:42.251Z,9.37
2019-04-05T10:32:12.264Z,9.41
2019-04-05T10:34:42.213Z,9.51
2019-04-05T10:37:11.558Z,9.39
2019-04-05T10:39:40.960Z,9.61
2019-04-05T10:42:26.647Z,9.38
2019-04-05T10:44:56.072Z,9.54
2019-04-05T10:47:25.475Z,9.74
2019-04-05T10:50:02.976Z,9.85
2019-04-05T10:52:27.232Z,9.86
2019-04-05T10:54:58.074Z,10.09
2019-04-05T10:57:27.668Z,10.50
2019-04-05T10:59:57.059Z,10.55
2019-04-05T11:02:26.470Z,10.75
2019-04-05T11:04:55.834Z,10.56
2019-04-05T11:07:25.401Z,10.80
2019-04-05T11:09:54.796Z,11.16
2019-04-05T11:12:26.045Z,11.37
2019-04-05T11:14:55.986Z,11.43
2019-04-05T11:17:26.093Z,11.43
2019-04-05T11:19:56.272Z,11.39
2019-04-05T11:22:27.815Z,11.45
2019-04-05T11:24:57.940Z,11.39
2019-04-05T11:27:28.097Z,11.48
2019-04-05T11:29:58.286Z,11.66
2019-04-05T11:32:28.484Z,11.89
2019-04-05T11:34:58.799Z,11.78
2019-04-05T11:37:29.491Z,11.91
2019-04-05T11:40:00.084Z,11.70
2019-04-05T11:42:33.058Z,11.77
2019-04-05T11:45:04.270Z,12.06
2019-04-05T11:47:34.832Z,11.86
2019-04-05T11:50:06.387Z,12.01
2019-04-05T11:52:36.943Z,12.00
2019-04-05T11:55:07.055Z,12.07
2019-04-05T11:57:37.115Z,12.10
2019-04-05T12:00:12.558Z,12.10
2019-04-05T12:02:56.733Z,12.20
2019-04-05T12:05:27.333Z,12.05
2019-04-05T12:08:01.028Z,12.09
2019-04-05T12:10:31.970Z,11.90
2019-04-05T12:13:01.311Z,12.04
2019-04-05T12:15:33.544Z,11.84
2019-04-05T12:18:04.545Z,11.42
2019-04-05T12:20:47.806Z,11.83
2019-04-05T12:23:07.514Z,12.19
2019-04-05T12:25:37.703Z,12.33
2019-04-05T12:28:10.584Z,12.63
2019-04-05T12:30:41.044Z,12.44
2019-04-05T12:33:14.505Z,12.36
2019-04-05T12:35:41.803Z,11.78
2019-04-05T12:38:12.859Z,12.28
2019-04-05T12:40:42.327Z,12.11
2019-04-05T12:43:13.591Z,11.99
2019-04-05T12:45:44.651Z,11.65
2019-04-05T12:48:15.912Z,11.42
2019-04-05T12:50:45.456Z,11.93
2019-04-05T12:53:15.071Z,11.64
2019-04-05T12:55:44.446Z,11.58
2019-04-05T12:58:13.822Z,11.64
2019-04-05T13:00:43.226Z,11.90
2019-04-05T13:03:12.597Z,11.93
2019-04-05T13:05:42.020Z,12.00
2019-04-05T13:08:11.397Z,12.07
2019-04-05T13:10:40.801Z,12.22
2019-04-05T13:13:10.206Z,12.13
2019-04-05T13:15:40.233Z,11.91
2019-04-05T13:18:10.183Z,12.33
2019-04-05T13:20:39.541Z,14.55
2019-04-05T13:23:08.942Z,16.35
2019-04-05T13:25:38.853Z,17.80
2019-04-05T13:28:13.497Z,18.54
2019-04-05T13:30:40.622Z,19.03
2019-04-05T13:33:10.000Z,17.67
2019-04-05T13:35:39.397Z,16.84
2019-04-05T13:38:08.840Z,14.76
2019-04-05T13:40:38.982Z,14.65
2019-04-05T13:43:08.453Z,15.43
2019-04-05T13:45:38.021Z,14.72
2019-04-05T13:48:09.026Z,14.25
2019-04-05T13:50:41.416Z,14.42
2019-04-05T13:53:11.359Z,14.06
2019-04-05T13:55:41.386Z,13.80
2019-04-05T13:58:12.035Z,13.72
2019-04-05T14:00:41.451Z,13.68
2019-04-05T14:03:10.834Z,13.63
2019-04-05T14:05:40.235Z,13.37
2019-04-05T14:08:10.859Z,13.23
2019-04-05T14:10:41.899Z,13.17
2019-04-05T14:13:11.437Z,13.25
2019-04-05T14:15:42.326Z,12.85
2019-04-05T14:18:14.510Z,12.71
2019-04-05T14:20:43.113Z,12.82
2019-04-05T14:23:12.538Z,12.57
2019-04-05T14:25:41.918Z,12.73
2019-04-05T14:28:11.330Z,13.04
2019-04-05T14:30:40.928Z,13.15
2019-04-05T14:33:10.531Z,13.36
2019-04-05T14:35:39.907Z,13.08
2019-04-05T14:38:11.621Z,13.39
2019-04-05T14:40:40.411Z,13.47
2019-04-05T14:43:09.781Z,13.38
2019-04-05T14:45:39.187Z,13.25
2019-04-05T14:48:08.659Z,13.34
2019-04-05T14:50:38.079Z,13.18
2019-04-05T14:53:07.464Z,13.21
2019-04-05T14:55:36.822Z,13.32
2019-04-05T14:58:06.360Z,13.45
2019-04-05T15:00:35.729Z,13.41
2019-04-05T15:03:05.143Z,13.68
2019-04-05T15:05:34.505Z,13.57
2019-04-05T15:08:03.893Z,13.46
2019-04-05T15:10:33.253Z,13.56
2019-04-05T15:13:02.888Z,13.82
2019-04-05T15:15:32.242Z,13.92
2019-04-05T15:18:02.678Z,13.82
2019-04-05T15:20:34.788Z,13.87
2019-04-05T15:23:04.758Z,13.67
2019-04-05T15:25:34.877Z,13.40
2019-04-05T15:28:05.194Z,13.71
2019-04-05T15:30:35.621Z,13.88
2019-04-05T15:33:05.994Z,13.82
2019-04-05T15:35:36.125Z,13.97
2019-04-05T15:38:06.162Z,13.88
2019-04-05T15:40:36.940Z,13.79
2019-04-05T15:43:07.373Z,13.83
2019-04-05T15:45:37.538Z,13.90
2019-04-05T15:48:07.600Z,13.32
2019-04-05T15:50:37.778Z,13.63
2019-04-05T15:53:07.849Z,13.67
2019-04-05T15:55:37.924Z,13.72
2019-04-05T15:58:08.063Z,13.42
2019-04-05T16:00:43.172Z,13.80
2019-04-05T16:03:14.054Z,13.96
2019-04-05T16:05:44.691Z,14.10
2019-04-05T16:08:16.928Z,14.17
2019-04-05T16:10:46.905Z,14.34
2019-04-05T16:13:16.948Z,14.25
2019-04-05T16:15:47.279Z,14.41
2019-04-05T16:18:17.438Z,14.67
2019-04-05T16:20:47.510Z,14.81
2019-04-05T16:23:17.632Z,14.95
2019-04-05T16:25:47.674Z,14.93
2019-04-05T16:28:17.909Z,14.94
2019-04-05T16:30:48.007Z,15.04
2019-04-05T16:33:18.529Z,14.70
2019-04-05T16:35:48.542Z,14.85
2019-04-05T16:38:18.568Z,14.69
2019-04-05T16:40:49.439Z,14.64
2019-04-05T16:43:18.789Z,15.02
2019-04-05T16:45:48.196Z,14.32
2019-04-05T16:48:17.649Z,14.59
2019-04-05T16:50:47.051Z,14.48
2019-04-05T16:53:16.476Z,14.42
2019-04-05T16:55:45.812Z,14.57
2019-04-05T16:58:15.208Z,14.41
2019-04-05T17:00:44.609Z,14.51
2019-04-05T17:03:14.002Z,14.37
2019-04-05T17:05:43.394Z,14.28
2019-04-05T17:08:12.795Z,14.16
2019-04-05T17:10:42.203Z,14.07
2019-04-05T17:13:11.981Z,14.04
2019-04-05T17:15:41.554Z,14.26
2019-04-05T17:18:10.923Z,14.03
2019-04-05T17:20:40.298Z,13.88
2019-04-05T17:23:09.799Z,13.49
2019-04-05T17:25:39.155Z,13.51
2019-04-05T17:28:08.775Z,13.43
2019-04-05T17:30:38.278Z,13.34
2019-04-05T17:33:07.694Z,13.12
2019-04-05T17:35:37.149Z,13.18
2019-04-05T17:38:06.588Z,13.09
2019-04-05T17:40:36.404Z,12.93
2019-04-05T17:43:05.885Z,12.90
2019-04-05T17:45:35.268Z,13.00
2019-04-05T17:48:04.666Z,12.91
2019-04-05T17:50:35.523Z,12.87
2019-04-05T17:53:12.735Z,12.33
2019-04-05T17:55:36.481Z,12.10
2019-04-05T17:58:07.081Z,12.18
2019-04-05T18:00:36.809Z,12.51
2019-04-05T18:03:08.093Z,12.39
2019-04-05T18:05:37.576Z,12.10
2019-04-05T18:08:07.215Z,12.33
2019-04-05T18:10:37.246Z,12.47
2019-04-05T18:13:06.642Z,12.29
2019-04-05T18:15:36.149Z,12.02
2019-04-05T18:18:05.603Z,11.85
2019-04-05T18:20:35.002Z,11.93
2019-04-05T18:23:04.492Z,11.95
2019-04-05T18:25:33.917Z,11.63
2019-04-05T18:28:03.343Z,11.54
2019-04-05T18:30:32.775Z,11.65
2019-04-05T18:33:02.268Z,11.50
2019-04-05T18:35:31.783Z,11.64
2019-04-05T18:38:01.175Z,11.28
2019-04-05T18:40:39.857Z,11.17
2019-04-05T18:43:01.930Z,11.07
2019-04-05T18:45:33.577Z,11.03
2019-04-05T18:48:03.947Z,10.88
2019-04-05T18:50:34.262Z,10.88
2019-04-05T18:53:04.533Z,10.81
2019-04-05T18:55:34.703Z,10.86
2019-04-05T18:58:04.975Z,10.76
2019-04-05T19:00:35.131Z,10.78
2019-04-05T19:03:05.441Z,10.72
2019-04-05T19:05:35.692Z,10.56
2019-04-05T19:08:06.182Z,10.74
2019-04-05T19:10:37.462Z,10.65
2019-04-05T19:13:07.613Z,10.49
2019-04-05T19:15:37.961Z,10.54
2019-04-05T19:18:08.125Z,10.64
2019-04-05T19:20:38.105Z,10.66
2019-04-05T19:23:08.187Z,10.74
2019-04-05T19:25:38.419Z,10.66
2019-04-05T19:28:08.588Z,10.56
2019-04-05T19:50:53.913Z,10.71
2019-04-05T19:53:24.207Z,10.67
2019-04-05T19:55:54.276Z,10.63
2019-04-05T19:58:24.612Z,10.48
2019-04-05T20:00:54.940Z,10.46
2019-04-05T20:03:24.299Z,10.50
2019-04-05T20:05:53.807Z,10.27
2019-04-05T20:08:23.220Z,10.24
2019-04-05T20:10:52.647Z,10.16
2019-04-05T20:13:22.031Z,10.19
2019-04-05T20:15:51.412Z,10.43
2019-04-05T20:18:20.931Z,10.22
2019-04-05T20:20:50.315Z,10.40
2019-04-05T20:23:19.716Z,10.30
2019-04-05T20:25:49.124Z,10.36
2019-04-05T20:28:18.534Z,10.36
2019-04-05T20:30:48.049Z,10.20
2019-04-05T20:33:17.486Z,10.20
2019-04-05T20:35:46.922Z,10.28
2019-04-05T20:38:16.296Z,10.30
2019-04-05T20:40:45.712Z,10.20
2019-04-05T20:43:15.105Z,10.40
2019-04-05T20:45:44.546Z,10.40
2019-04-05T20:48:13.939Z,10.42
2019-04-05T20:50:43.315Z,10.41
2019-04-05T20:53:12.792Z,10.40
2019-04-05T20:55:42.419Z,10.52
2019-04-05T20:58:11.933Z,10.58
2019-04-05T21:00:41.310Z,10.58
2019-04-05T21:03:10.813Z,10.64
2019-04-05T21:05:40.210Z,10.54
2019-04-05T21:08:09.594Z,10.66
2019-04-05T21:10:39.031Z,10.44
2019-04-05T21:13:08.471Z,10.15
2019-04-05T21:15:37.890Z,10.37
2019-04-05T21:18:07.345Z,10.26
2019-04-05T21:20:36.765Z,10.30
2019-04-05T21:23:06.239Z,10.62
2019-04-05T21:25:35.666Z,10.57
2019-04-05T21:28:05.058Z,10.62
2019-04-05T21:30:34.449Z,10.73
2019-04-05T21:33:03.901Z,10.40
2019-04-05T21:35:33.294Z,10.07
2019-04-05T21:38:02.727Z,10.12
2019-04-05T21:40:32.105Z,9.79
2019-04-05T21:43:01.500Z,9.84
2019-04-05T21:45:31.009Z,9.93
2019-04-05T21:48:00.396Z,9.86
2019-04-05T21:50:29.898Z,9.89
2019-04-05T21:52:59.264Z,9.83
2019-04-05T21:55:28.719Z,9.68
2019-04-05T21:57:58.088Z,9.75
2019-04-05T22:00:33.582Z,9.77
2019-04-05T22:03:03.057Z,9.59
2019-04-05T22:05:32.451Z,9.54
2019-04-05T22:08:01.951Z,9.53
2019-04-05T22:10:31.424Z,9.41
2019-04-05T22:13:00.810Z,9.47
2019-04-05T22:15:30.234Z,9.34
2019-04-05T22:17:59.652Z,9.36
2019-04-05T22:20:29.027Z,9.38
2019-04-05T22:22:58.397Z,9.41
2019-04-05T22:25:27.796Z,9.32
2019-04-05T22:27:57.302Z,9.30
2019-04-05T22:30:26.716Z,9.24
2019-04-05T22:32:56.191Z,9.21
2019-04-05T22:35:25.617Z,9.24
2019-04-05T22:37:55.022Z,9.18
2019-04-05T22:40:24.422Z,9.10
2019-04-05T22:42:53.844Z,9.17
2019-04-05T22:45:23.219Z,9.03
2019-04-05T22:47:52.619Z,8.95
2019-04-05T22:50:22.000Z,9.04
2019-04-05T22:52:51.416Z,8.98
2019-04-05T22:55:20.814Z,8.98
2019-04-05T22:57:50.273Z,8.90
2019-04-05T23:00:19.662Z,8.90
2019-04-05T23:02:49.049Z,9.02
2019-04-05T23:05:18.447Z,9.02
2019-04-05T23:07:47.862Z,8.89
2019-04-05T23:10:18.556Z,8.97
2019-04-05T23:12:47.930Z,9.01
2019-04-05T23:15:17.300Z,9.05
2019-04-05T23:17:46.711Z,9.05
2019-04-05T23:20:16.292Z,9.00
2019-04-05T23:22:45.686Z,8.93
2019-04-05T23:25:21.931Z,8.93
2019-04-05T23:27:46.182Z,8.89
2019-04-05T23:30:16.345Z,8.86
2019-04-05T23:32:45.725Z,8.99
2019-04-05T23:35:15.165Z,8.99
2019-04-05T23:37:44.541Z,8.87
2019-04-05T23:40:14.236Z,8.85
2019-04-05T23:42:43.618Z,8.82
2019-04-05T23:45:13.459Z,8.72
2019-04-05T23:47:42.878Z,8.53
2019-04-05T23:50:13.877Z,8.53
2019-04-05T23:52:43.276Z,8.39
2019-04-05T23:55:12.643Z,8.39
2019-04-05T23:57:42.032Z,8.41
